Discovery — 3FII9 — position and weather

sailwx.info

Track history (hours):
 
Tides and Currents Weather Stations Pressure Air Temp Water Temp Dewpoint Dewpoint Depression Visibility Wind Speed Wind Dir Waves Ship Positions

Discovery

Operator: V Ships Leisure SAM

Last reported at 2014-Dec-13 18:33 UTC. Time now 2014-Dec-22 07:04 UTC.
Position N 50°33' E 000°25'.
Warning: this ship's position is 8 days out of date.

Length 177 m; draft 9.8 m.

Type: Cargo ship. MMSI: 353389000.

Date/timePositionNaut miles runAvg speedWind from/ knotsBaromVisibWave heightAir tempDewpointWater temp
2014-Dec-13 18:33N 50°33' E 000°25'1312.9
2014-Dec-13 17:33N 50°39' E 000°43'1212.3
2014-Dec-13 16:33N 50°45' E 000°59'1311.4
2014-Dec-13 15:23N 50°53' E 001°16'911.2
2014-Dec-13 14:33N 51°00' E 001°26'1212.4
2014-Dec-13 13:33N 51°09' E 001°39'1413.5
2014-Dec-13 12:33N 51°20' E 001°52'1413.9
2014-Dec-13 11:33N 51°31' E 002°05'374 9.3
2014-Dec-11 19:33N 56°51' E 007°38'7 6.6
2014-Dec-11 18:32N 56°56' E 007°45'10 7.3
2014-Dec-11 17:08N 57°05' E 007°56'92 7.8
2014-Dec-11 05:24N 57°47' E 010°26'8 9.4
2014-Dec-11 04:33N 57°48' E 010°41'7 6.6
2014-Dec-11 03:33N 57°42' E 010°46'3 0.3
2014-Dec-10 17:30N 57°41' E 010°40'8 8.8
2014-Dec-10 16:33N 57°36' E 010°54'1111.1
2014-Dec-10 15:33N 57°32' E 011°12'1010.2
2014-Dec-10 14:34N 57°26' E 011°28'1212.1
2014-Dec-10 13:33N 57°14' E 011°35'1110.7
2014-Dec-10 12:33N 57°04' E 011°42'1110.6
2014-Dec-10 11:33N 56°54' E 011°48'1010.3
2014-Dec-10 10:32N 56°44' E 011°53'138 8.7
2014-Dec-09 18:34N 54°26' E 011°52'10 9.9
2014-Dec-09 17:33N 54°26' E 012°09'6110.2
2014-Dec-09 11:33N 54°59' E 013°39'1111.0
2014-Dec-09 10:33N 55°02' E 013°57'1010.0
2014-Dec-09 09:33N 55°09' E 014°11'1111.3
2014-Dec-09 08:33N 55°17' E 014°23'1211.9
2014-Dec-09 07:33N 55°27' E 014°36'1111.3
2014-Dec-09 06:33N 55°32' E 014°54'1211.6
2014-Dec-09 05:33N 55°37' E 015°12'  
Track history (hours):
 
Tides and Currents Weather Stations Pressure Air Temp Water Temp Dewpoint Dewpoint Depression Visibility Wind Speed Wind Dir Waves Ship Positions

Discovery

Operator: V Ships Leisure SAM

Last reported at 2014-Dec-13 18:33 UTC. Time now 2014-Dec-22 07:04 UTC.
Position N 50°33' E 000°25'.
Warning: this ship's position is 8 days out of date.

Length 177 m; draft 9.8 m.

Type: Cargo ship. MMSI: 353389000.

Date/timePositionNaut miles runAvg speedWind from/ knotsBaromVisibWave heightAir tempDewpointWater temp
2014-Dec-13 18:33N 50°33' E 000°25'1312.9
2014-Dec-13 17:33N 50°39' E 000°43'1212.3
2014-Dec-13 16:33N 50°45' E 000°59'1311.4
2014-Dec-13 15:23N 50°53' E 001°16'911.2
2014-Dec-13 14:33N 51°00' E 001°26'1212.4
2014-Dec-13 13:33N 51°09' E 001°39'1413.5
2014-Dec-13 12:33N 51°20' E 001°52'1413.9
2014-Dec-13 11:33N 51°31' E 002°05'374 9.3
2014-Dec-11 19:33N 56°51' E 007°38'7 6.6
2014-Dec-11 18:32N 56°56' E 007°45'10 7.3
2014-Dec-11 17:08N 57°05' E 007°56'92 7.8
2014-Dec-11 05:24N 57°47' E 010°26'8 9.4
2014-Dec-11 04:33N 57°48' E 010°41'7 6.6
2014-Dec-11 03:33N 57°42' E 010°46'3 0.3
2014-Dec-10 17:30N 57°41' E 010°40'8 8.8
2014-Dec-10 16:33N 57°36' E 010°54'1111.1
2014-Dec-10 15:33N 57°32' E 011°12'1010.2
2014-Dec-10 14:34N 57°26' E 011°28'1212.1
2014-Dec-10 13:33N 57°14' E 011°35'1110.7
2014-Dec-10 12:33N 57°04' E 011°42'1110.6
2014-Dec-10 11:33N 56°54' E 011°48'1010.3
2014-Dec-10 10:32N 56°44' E 011°53'138 8.7
2014-Dec-09 18:34N 54°26' E 011°52'10 9.9
2014-Dec-09 17:33N 54°26' E 012°09'6110.2
2014-Dec-09 11:33N 54°59' E 013°39'1111.0
2014-Dec-09 10:33N 55°02' E 013°57'1010.0
2014-Dec-09 09:33N 55°09' E 014°11'1111.3
2014-Dec-09 08:33N 55°17' E 014°23'1211.9
2014-Dec-09 07:33N 55°27' E 014°36'1111.3
2014-Dec-09 06:33N 55°32' E 014°54'1211.6
2014-Dec-09 05:33N 55°37' E 015°12'  

Dump ship's entire track history